Time;durP1;ratioP1;P1;durP2;ratioP2;P2;SDS_P1;SDS_P2;PMS_P1;PMS_P2;Temp;Humidity;BMP_temperature;BMP_pressure;BME280_temperature;BME280_humidity;BME280_pressure;Samples;Min_cycle;Max_cycle;Signal;HPM_P1;HPM_P2
2023/07/16 00:00:41;;;;;;;4.63;4.40;;;19.70;99.90;;;;;;4892263;29;20267;-73
2023/07/16 00:03:06;;;;;;;4.47;4.07;;;19.80;99.90;;;;;;4889911;29;20263;-73
2023/07/16 00:05:32;;;;;;;2.53;2.40;;;19.70;99.90;;;;;;4899120;29;20224;-73
2023/07/16 00:07:57;;;;;;;2.87;2.70;;;19.70;99.90;;;;;;4870929;29;20982;-73
2023/07/16 00:10:23;;;;;;;5.70;2.70;;;19.80;99.90;;;;;;4890393;29;20194;-73
2023/07/16 00:12:49;;;;;;;3.00;2.90;;;19.70;99.90;;;;;;4872703;29;20197;-73
2023/07/16 00:15:15;;;;;;;2.53;2.43;;;19.80;99.90;;;;;;4898985;29;20177;-73
2023/07/16 00:17:40;;;;;;;2.63;2.43;;;19.80;99.90;;;;;;4892307;29;20212;-74
2023/07/16 00:20:07;;;;;;;2.80;2.60;;;19.70;99.90;;;;;;4894924;29;20540;-73
2023/07/16 00:22:32;;;;;;;2.67;2.47;;;19.60;99.90;;;;;;4888704;29;20216;-72
2023/07/16 00:24:58;;;;;;;3.40;2.67;;;19.60;99.90;;;;;;4895397;29;20468;-72
2023/07/16 00:27:23;;;;;;;2.80;2.60;;;19.60;99.90;;;;;;4893464;29;20625;-72
2023/07/16 00:29:49;;;;;;;3.53;2.57;;;19.60;99.90;;;;;;4894925;29;20707;-73
2023/07/16 00:32:14;;;;;;;8.47;3.00;;;19.60;99.90;;;;;;4883483;29;20205;-73
2023/07/16 00:34:40;;;;;;;4.30;3.43;;;19.60;99.90;;;;;;4890212;29;20411;-72
2023/07/16 00:37:07;;;;;;;2.63;2.47;;;19.70;99.90;;;;;;4886099;29;20279;-73
2023/07/16 00:39:33;;;;;;;3.23;3.03;;;19.60;99.90;;;;;;4885564;29;20480;-73
2023/07/16 00:41:59;;;;;;;6.03;2.67;;;19.60;99.90;;;;;;4886976;29;20455;-73
2023/07/16 00:44:24;;;;;;;2.83;2.73;;;19.60;99.90;;;;;;4892687;29;20488;-73
2023/07/16 00:46:51;;;;;;;3.20;3.10;;;19.50;99.90;;;;;;4893691;29;20195;-73
2023/07/16 00:49:17;;;;;;;2.60;2.40;;;19.50;99.90;;;;;;4898532;29;20208;-73
2023/07/16 00:51:42;;;;;;;3.40;3.07;;;19.50;99.90;;;;;;4893725;29;20978;-72
2023/07/16 00:54:08;;;;;;;2.40;2.30;;;19.40;99.90;;;;;;4896519;29;20499;-73
2023/07/16 00:56:34;;;;;;;2.93;2.60;;;19.40;99.90;;;;;;4871852;29;20196;-74
2023/07/16 00:59:00;;;;;;;2.40;2.20;;;19.40;99.90;;;;;;4893602;29;20181;-73
2023/07/16 01:11:49;;;;;;;2.80;2.70;;;19.00;99.90;;;;;;4891110;29;21290;-72
2023/07/16 01:24:40;;;;;;;2.93;2.73;;;18.90;99.90;;;;;;4897650;29;20400;-73
2023/07/16 01:27:44;;;;;;;3.37;3.17;;;18.90;99.90;;;;;;4891398;29;20464;-73
2023/07/16 01:33:41;;;;;;;2.70;2.60;;;18.80;99.90;;;;;;4889441;29;20483;-73
2023/07/16 01:36:08;;;;;;;3.20;3.10;;;18.80;99.90;;;;;;4897308;29;21172;-73
2023/07/16 01:38:35;;;;;;;3.27;2.87;;;18.70;99.90;;;;;;4893158;29;20474;-73
2023/07/16 01:41:00;;;;;;;3.03;2.90;;;18.60;99.90;;;;;;4895824;29;21053;-74
2023/07/16 01:43:26;;;;;;;3.40;3.30;;;18.60;99.90;;;;;;4896050;29;20436;-73
2023/07/16 01:45:51;;;;;;;4.43;3.70;;;18.60;99.90;;;;;;4886488;29;20565;-73
2023/07/16 01:48:33;;;;;;;3.60;3.40;;;18.60;99.90;;;;;;4896717;29;20219;-74
2023/07/16 01:50:59;;;;;;;4.20;3.90;;;18.70;99.90;;;;;;4885395;29;20275;-73
2023/07/16 01:53:25;;;;;;;3.63;3.47;;;18.70;99.90;;;;;;4890940;29;20532;-73
2023/07/16 01:55:50;;;;;;;4.13;3.60;;;18.70;99.90;;;;;;4885132;29;20204;-73
2023/07/16 01:58:16;;;;;;;4.27;4.00;;;18.80;99.90;;;;;;4890847;29;20882;-73
2023/07/16 02:00:42;;;;;;;3.80;3.60;;;18.80;99.90;;;;;;4885994;29;20208;-73
2023/07/16 02:03:08;;;;;;;3.80;3.50;;;18.80;99.90;;;;;;4897908;29;20207;-73
2023/07/16 02:05:34;;;;;;;3.10;3.00;;;18.90;99.90;;;;;;4873162;29;20448;-73
2023/07/16 02:07:59;;;;;;;3.37;3.27;;;19.00;99.90;;;;;;4891308;29;20213;-73
2023/07/16 02:10:25;;;;;;;3.67;3.50;;;19.10;99.90;;;;;;4887334;29;20878;-72
2023/07/16 02:12:50;;;;;;;3.27;3.07;;;19.10;99.90;;;;;;4896238;29;20594;-72
2023/07/16 02:15:17;;;;;;;3.23;3.03;;;19.30;99.90;;;;;;4889957;29;20242;-72
2023/07/16 02:17:43;;;;;;;3.33;3.10;;;19.30;99.90;;;;;;4900335;29;20263;-72
2023/07/16 02:20:10;;;;;;;3.60;3.20;;;19.30;99.90;;;;;;4883846;29;20460;-72
2023/07/16 02:22:38;;;;;;;3.30;2.70;;;19.40;99.90;;;;;;4896749;29;20428;-72
2023/07/16 02:25:04;;;;;;;2.90;2.70;;;19.30;99.90;;;;;;4890831;29;20982;-73
2023/07/16 02:27:30;;;;;;;4.13;3.60;;;19.30;99.90;;;;;;4897397;29;20413;-73
2023/07/16 02:29:55;;;;;;;3.83;3.50;;;19.30;99.90;;;;;;4898655;29;20451;-73
2023/07/16 02:32:21;;;;;;;3.47;2.87;;;19.40;99.90;;;;;;4896551;29;20255;-74
2023/07/16 02:34:47;;;;;;;3.00;2.70;;;19.40;99.90;;;;;;4897096;29;20204;-73
2023/07/16 02:37:13;;;;;;;5.57;3.20;;;19.40;99.90;;;;;;4902874;29;20184;-73
2023/07/16 02:39:39;;;;;;;3.23;2.47;;;19.40;99.90;;;;;;4894514;29;20223;-73
2023/07/16 02:42:05;;;;;;;2.53;2.43;;;19.50;99.90;;;;;;4898293;29;20195;-72
2023/07/16 02:44:30;;;;;;;4.67;2.90;;;19.60;99.90;;;;;;4898223;29;20445;-72
2023/07/16 02:46:56;;;;;;;2.47;2.37;;;19.40;99.90;;;;;;4901493;29;20252;-72
2023/07/16 02:49:21;;;;;;;6.63;2.60;;;19.50;99.90;;;;;;4897389;29;20220;-72
2023/07/16 02:51:47;;;;;;;3.27;2.97;;;19.50;99.90;;;;;;4903473;29;20188;-72
2023/07/16 02:54:12;;;;;;;4.60;2.80;;;19.40;99.90;;;;;;4894273;29;20695;-74
2023/07/16 02:56:38;;;;;;;4.00;2.60;;;19.50;99.90;;;;;;4900333;29;20252;-73
2023/07/16 02:59:03;;;;;;;3.70;2.77;;;19.40;99.90;;;;;;4895018;29;20190;-73
2023/07/16 03:01:29;;;;;;;2.43;2.30;;;19.40;99.90;;;;;;4894459;29;20668;-73
2023/07/16 03:03:55;;;;;;;4.73;2.77;;;19.20;99.90;;;;;;4893797;29;20191;-73
2023/07/16 03:06:20;;;;;;;8.07;3.30;;;19.10;99.90;;;;;;4891444;29;20292;-72
2023/07/16 03:08:46;;;;;;;2.57;2.47;;;19.00;99.90;;;;;;4871674;29;20689;-72
2023/07/16 03:11:12;;;;;;;4.27;2.60;;;18.80;99.90;;;;;;4889026;29;20205;-72
2023/07/16 03:13:38;;;;;;;3.00;2.90;;;18.80;99.90;;;;;;4894896;29;20623;-73
2023/07/16 03:16:03;;;;;;;3.27;2.57;;;18.80;99.90;;;;;;4885469;29;20467;-73
2023/07/16 03:18:30;;;;;;;4.77;2.73;;;18.70;99.90;;;;;;4894549;29;20736;-72
2023/07/16 03:20:56;;;;;;;2.90;2.70;;;18.50;99.90;;;;;;4894675;29;20192;-73
2023/07/16 03:23:22;;;;;;;3.90;2.40;;;18.50;99.90;;;;;;4874408;29;20429;-73
2023/07/16 03:25:48;;;;;;;3.50;2.60;;;18.40;99.90;;;;;;4883087;29;20452;-73
2023/07/16 03:28:13;;;;;;;4.90;3.17;;;18.30;99.90;;;;;;4889309;29;20471;-73
2023/07/16 03:30:39;;;;;;;2.73;2.30;;;18.30;99.90;;;;;;4885253;29;20203;-73
2023/07/16 03:33:05;;;;;;;6.10;2.87;;;18.30;99.90;;;;;;4888122;29;20242;-73
2023/07/16 03:35:30;;;;;;;4.13;2.87;;;18.30;99.90;;;;;;4882304;29;20255;-74
2023/07/16 03:37:56;;;;;;;3.50;2.70;;;18.20;99.90;;;;;;4888249;29;20268;-73
2023/07/16 03:40:25;;;;;;;2.53;2.40;;;18.20;99.90;;;;;;4886225;29;20212;-72
2023/07/16 03:42:50;;;;;;;2.50;2.40;;;18.20;99.90;;;;;;4888880;29;20188;-73
2023/07/16 03:45:16;;;;;;;4.63;2.87;;;18.20;99.90;;;;;;4887621;29;20437;-73
2023/07/16 03:47:42;;;;;;;2.50;2.40;;;18.10;99.90;;;;;;4889815;29;20181;-73
2023/07/16 03:50:08;;;;;;;5.90;3.20;;;18.10;99.90;;;;;;4889284;29;20194;-72
2023/07/16 04:02:40;;;;;;;2.83;2.63;;;17.90;99.90;;;;;;4882468;29;20548;-72
2023/07/16 04:15:12;;;;;;;2.73;2.20;;;18.00;99.90;;;;;;4882747;29;20416;-72
2023/07/16 04:20:59;;;;;;;2.50;2.40;;;18.00;99.90;;;;;;4881115;29;20435;-72
2023/07/16 04:23:25;;;;;;;3.03;2.90;;;17.90;99.90;;;;;;4879488;29;20449;-72
2023/07/16 04:25:55;;;;;;;3.23;3.03;;;18.00;99.90;;;;;;4885856;29;20219;-72
2023/07/16 04:28:21;;;;;;;2.97;2.77;;;18.00;99.90;;;;;;4890413;29;20224;-73
2023/07/16 04:30:46;;;;;;;2.53;2.33;;;18.00;99.90;;;;;;4891881;29;20940;-72
2023/07/16 04:33:12;;;;;;;4.00;3.63;;;18.00;99.90;;;;;;4884595;29;20452;-73
2023/07/16 04:35:40;;;;;;;3.63;3.00;;;18.10;99.90;;;;;;4888101;29;20267;-72
2023/07/16 04:38:07;;;;;;;2.80;2.60;;;18.10;99.90;;;;;;4881197;29;20204;-72
2023/07/16 04:40:33;;;;;;;2.93;2.70;;;18.20;99.90;;;;;;4893309;29;21162;-73
2023/07/16 04:42:59;;;;;;;2.60;2.40;;;18.20;99.90;;;;;;4884000;29;20460;-72
2023/07/16 04:45:24;;;;;;;3.93;2.30;;;18.20;99.90;;;;;;4895166;29;20184;-73
2023/07/16 04:47:50;;;;;;;3.47;2.90;;;18.30;99.90;;;;;;4881845;29;20818;-74
2023/07/16 04:50:15;;;;;;;3.10;2.47;;;18.40;99.90;;;;;;4895103;29;20192;-73
2023/07/16 04:56:14;;;;;;;3.60;2.43;;;18.80;99.90;;;;;;4894393;29;20606;-73
2023/07/16 05:02:06;;;;;;;3.20;2.30;;;19.30;99.90;;;;;;4892909;29;20436;-73
2023/07/16 05:07:54;;;;;;;4.47;2.77;;;19.80;99.90;;;;;;4888836;29;20487;-74
2023/07/16 05:17:03;;;;;;;4.47;3.13;;;20.50;99.90;;;;;;4888261;29;20847;-72
2023/07/16 05:36:20;;;;;;;3.83;2.83;;;21.30;99.90;;;;;;4894135;29;20540;-72
2023/07/16 05:38:45;;;;;;;3.33;3.10;;;21.40;99.90;;;;;;4884095;29;20586;-72
2023/07/16 05:41:11;;;;;;;3.70;2.60;;;21.40;99.90;;;;;;4890004;29;20202;-73
2023/07/16 05:43:37;;;;;;;3.57;3.40;;;21.30;99.90;;;;;;4878263;29;20203;-73
2023/07/16 05:46:05;;;;;;;6.00;3.17;;;21.20;99.90;;;;;;4891877;29;20201;-72
2023/07/16 05:48:31;;;;;;;4.47;3.47;;;21.30;99.90;;;;;;4887191;29;20464;-73
2023/07/16 05:50:56;;;;;;;4.30;2.90;;;21.20;99.90;;;;;;4866958;29;20718;-73
2023/07/16 05:53:22;;;;;;;3.33;2.83;;;21.40;99.90;;;;;;4896021;29;20408;-73
2023/07/16 05:55:49;;;;;;;3.23;2.93;;;21.40;99.90;;;;;;4886828;29;20208;-73
2023/07/16 05:58:15;;;;;;;4.27;3.70;;;21.50;99.90;;;;;;4885192;29;20236;-73
2023/07/16 06:00:40;;;;;;;3.80;2.80;;;21.40;99.90;;;;;;4889377;29;21122;-73
2023/07/16 06:03:06;;;;;;;3.87;3.57;;;21.10;99.90;;;;;;4871505;29;20668;-73
2023/07/16 06:05:34;;;;;;;3.90;3.20;;;21.30;99.90;;;;;;4880700;29;20193;-73
2023/07/16 06:08:00;;;;;;;3.90;3.70;;;21.50;99.90;;;;;;4891618;29;20204;-74
2023/07/16 06:10:25;;;;;;;3.50;3.30;;;21.50;99.90;;;;;;4890446;29;20449;-74
2023/07/16 06:12:51;;;;;;;4.00;3.40;;;21.90;99.90;;;;;;4898124;29;20429;-73
2023/07/16 06:15:17;;;;;;;5.70;4.30;;;22.00;99.90;;;;;;4892695;29;20766;-73
2023/07/16 06:17:42;;;;;;;3.50;3.30;;;21.70;99.90;;;;;;4901409;29;20220;-73
2023/07/16 06:20:09;;;;;;;3.57;3.37;;;22.00;99.90;;;;;;4882254;29;20193;-72
2023/07/16 06:22:34;;;;;;;4.90;4.50;;;22.00;99.90;;;;;;4882505;29;20169;-72
2023/07/16 06:25:00;;;;;;;5.87;4.40;;;22.40;99.90;;;;;;4883996;29;20442;-73
2023/07/16 06:27:26;;;;;;;4.00;3.70;;;22.50;99.90;;;;;;4892026;29;20228;-75
2023/07/16 06:29:52;;;;;;;5.50;5.10;;;22.70;99.90;;;;;;4883083;29;20225;-73
2023/07/16 06:32:17;;;;;;;6.67;4.53;;;23.30;99.90;;;;;;4889868;29;20181;-72
2023/07/16 06:34:43;;;;;;;5.63;4.17;;;23.10;99.90;;;;;;4885036;29;21247;-73
2023/07/16 06:37:08;;;;;;;7.50;5.33;;;23.10;99.90;;;;;;4880247;29;20207;-71
2023/07/16 06:39:34;;;;;;;5.60;4.43;;;23.00;99.90;;;;;;4897496;29;20324;-72
2023/07/16 06:42:00;;;;;;;3.93;3.63;;;23.10;99.90;;;;;;4887133;29;20223;-72
2023/07/16 06:44:26;;;;;;;4.37;4.07;;;23.10;99.90;;;;;;4883609;29;20212;-72
2023/07/16 06:46:53;;;;;;;4.37;4.27;;;23.40;99.90;;;;;;4897933;29;20546;-72
2023/07/16 06:49:19;;;;;;;4.83;4.43;;;23.40;99.90;;;;;;4869563;29;20663;-73
2023/07/16 06:51:45;;;;;;;4.10;4.00;;;23.40;99.90;;;;;;4890683;29;21194;-72
2023/07/16 06:54:11;;;;;;;5.20;4.77;;;23.60;99.90;;;;;;4890026;29;20544;-73
2023/07/16 06:56:36;;;;;;;5.53;4.60;;;23.50;99.90;;;;;;4880666;29;20213;-72
2023/07/16 06:59:02;;;;;;;5.60;4.83;;;24.00;97.80;;;;;;4867007;29;20456;-74
2023/07/16 07:01:28;;;;;;;4.90;4.53;;;23.80;99.70;;;;;;4879923;29;20232;-71
2023/07/16 07:03:54;;;;;;;4.70;4.37;;;24.00;98.20;;;;;;4884494;29;20709;-72
2023/07/16 07:06:21;;;;;;;6.20;4.77;;;24.00;96.00;;;;;;4880176;29;20213;-72
2023/07/16 07:08:46;;;;;;;4.20;4.00;;;23.60;97.10;;;;;;4888358;29;20481;-72
2023/07/16 07:11:12;;;;;;;5.10;4.70;;;23.50;98.40;;;;;;4879743;29;20507;-74
2023/07/16 07:13:38;;;;;;;5.17;4.87;;;23.90;97.80;;;;;;4881957;29;20208;-72
2023/07/16 07:16:04;;;;;;;4.77;4.37;;;24.10;97.20;;;;;;4896152;29;20276;-72
2023/07/16 07:18:30;;;;;;;4.87;4.47;;;24.30;95.30;;;;;;4888131;29;20448;-72
2023/07/16 07:20:55;;;;;;;5.50;4.60;;;24.10;95.60;;;;;;4882482;29;20925;-72
2023/07/16 07:23:21;;;;;;;5.33;5.03;;;24.20;95.10;;;;;;4893450;29;20704;-73
2023/07/16 07:25:51;;;;;;;4.90;4.50;;;24.30;95.90;;;;;;4889623;29;20215;-72
2023/07/16 07:28:18;;;;;;;5.00;4.60;;;24.20;94.10;;;;;;4882726;29;20468;-73
2023/07/16 07:30:44;;;;;;;7.27;4.80;;;24.50;94.00;;;;;;4882631;29;20461;-73
2023/07/16 07:33:10;;;;;;;4.80;4.60;;;24.90;94.00;;;;;;4877550;29;20463;-74
2023/07/16 07:35:39;;;;;;;5.10;4.70;;;25.50;93.20;;;;;;4877374;29;20242;-73
2023/07/16 07:38:04;;;;;;;4.73;4.47;;;25.50;92.00;;;;;;4898266;29;20200;-72
2023/07/16 07:40:30;;;;;;;5.00;4.70;;;25.60;90.70;;;;;;4884463;29;20509;-72
2023/07/16 07:42:55;;;;;;;5.03;4.83;;;25.20;91.50;;;;;;4879398;29;21129;-72
2023/07/16 07:45:21;;;;;;;4.30;4.10;;;25.20;92.20;;;;;;4872552;29;20177;-72
2023/07/16 07:47:48;;;;;;;5.03;4.53;;;25.70;90.40;;;;;;4884600;29;20265;-72
2023/07/16 07:50:14;;;;;;;5.07;4.80;;;25.70;87.60;;;;;;4896333;29;20195;-72
2023/07/16 07:52:40;;;;;;;5.30;4.80;;;25.40;89.00;;;;;;4886458;29;20999;-73
2023/07/16 07:55:06;;;;;;;5.70;3.90;;;25.30;87.90;;;;;;4896147;29;20203;-73
2023/07/16 07:57:32;;;;;;;4.80;4.47;;;25.60;84.80;;;;;;4886936;29;20220;-72
2023/07/16 07:59:58;;;;;;;5.67;4.67;;;24.70;89.30;;;;;;4883533;29;20489;-72
2023/07/16 08:02:24;;;;;;;5.47;5.13;;;25.20;87.20;;;;;;4888895;29;20515;-71
2023/07/16 08:04:53;;;;;;;5.07;4.67;;;24.70;88.80;;;;;;4886300;29;20974;-72
2023/07/16 08:07:19;;;;;;;4.43;4.20;;;25.40;87.50;;;;;;4895310;29;20512;-74
2023/07/16 08:09:46;;;;;;;5.07;4.77;;;25.90;83.30;;;;;;4889089;29;20502;-72
2023/07/16 08:19:53;;;;;;;5.33;4.87;;;26.30;83.30;;;;;;4889242;29;20431;-73
2023/07/16 09:19:51;;;;;;;4.30;3.97;;;26.00;69.10;;;;;;4892472;29;20604;-72
2023/07/16 09:22:20;;;;;;;4.80;4.40;;;25.50;70.30;;;;;;4894390;29;20429;-74
2023/07/16 09:24:47;;;;;;;4.63;4.40;;;25.60;71.00;;;;;;4880917;29;20984;-72
2023/07/16 09:27:13;;;;;;;4.27;4.00;;;25.70;69.00;;;;;;4898016;29;20636;-72
2023/07/16 09:29:39;;;;;;;4.17;3.93;;;25.80;68.00;;;;;;4895301;29;20460;-74
2023/07/16 09:32:05;;;;;;;4.43;4.07;;;25.60;72.50;;;;;;4895826;29;20442;-73
2023/07/16 09:34:31;;;;;;;4.87;4.50;;;25.90;69.20;;;;;;4893694;29;20443;-74
2023/07/16 09:36:58;;;;;;;3.43;3.33;;;26.20;70.90;;;;;;4899531;29;20748;-73
2023/07/16 09:39:25;;;;;;;4.30;4.00;;;26.80;67.60;;;;;;4898120;29;21167;-73
2023/07/16 09:41:51;;;;;;;4.63;4.20;;;27.50;65.30;;;;;;4892854;29;20463;-73
2023/07/16 09:44:17;;;;;;;5.00;4.47;;;27.30;66.20;;;;;;4906175;29;20776;-73
2023/07/16 09:46:44;;;;;;;3.83;3.50;;;27.90;63.80;;;;;;4894571;29;20203;-73
2023/07/16 09:53:07;;;;;;;6.17;4.37;;;29.20;59.30;;;;;;4886852;29;20473;-73
2023/07/16 09:58:57;;;;;;;4.63;3.60;;;29.00;58.50;;;;;;4888596;29;20468;-72
2023/07/16 10:05:17;;;;;;;4.30;3.80;;;29.30;57.60;;;;;;4898171;29;20404;-73
2023/07/16 10:15:23;;;;;;;3.57;3.30;;;30.20;56.20;;;;;;4903251;29;20430;-73
2023/07/16 10:25:13;;;;;;;4.27;3.77;;;28.10;57.80;;;;;;4896732;29;20500;-72
2023/07/16 10:31:01;;;;;;;4.83;4.43;;;28.00;58.30;;;;;;4888824;29;20852;-71
2023/07/16 10:40:13;;;;;;;4.00;3.70;;;29.60;57.00;;;;;;4898128;29;21006;-73
2023/07/16 10:42:43;;;;;;;4.17;3.70;;;29.70;56.10;;;;;;4877671;29;20784;-73
2023/07/16 10:45:09;;;;;;;4.13;3.73;;;29.10;55.60;;;;;;4878360;29;20431;-72
2023/07/16 10:47:40;;;;;;;4.00;3.87;;;28.20;56.40;;;;;;4892685;29;20440;-72
2023/07/16 10:50:09;;;;;;;3.27;3.20;;;27.90;57.40;;;;;;4891952;29;20496;-73
2023/07/16 10:52:35;;;;;;;3.70;3.50;;;28.00;57.00;;;;;;4893008;29;20448;-73
2023/07/16 10:55:01;;;;;;;3.87;3.67;;;27.40;57.10;;;;;;4900003;29;20447;-72
2023/07/16 10:57:27;;;;;;;3.93;3.70;;;27.30;57.90;;;;;;4898734;29;20812;-74
2023/07/16 10:59:58;;;;;;;4.80;4.40;;;27.40;58.60;;;;;;4896454;29;20191;-72
2023/07/16 11:02:25;;;;;;;3.83;3.63;;;27.60;59.00;;;;;;4894618;29;20849;-73
2023/07/16 11:04:54;;;;;;;5.77;5.37;;;26.80;58.60;;;;;;4900395;29;20432;-73
2023/07/16 11:07:21;;;;;;;3.77;3.50;;;26.70;58.80;;;;;;4889889;29;20440;-73
2023/07/16 11:33:21;;;;;;;3.60;3.40;;;25.70;62.70;;;;;;4895710;29;20995;-73
2023/07/16 11:35:48;;;;;;;3.67;3.47;;;25.70;60.10;;;;;;4895200;29;20456;-74
2023/07/16 11:38:13;;;;;;;4.93;4.53;;;25.10;61.10;;;;;;4892735;29;20707;-73
2023/07/16 11:40:39;;;;;;;4.73;4.33;;;24.90;63.20;;;;;;4895063;29;21020;-73
2023/07/16 11:43:10;;;;;;;5.60;3.90;;;25.00;62.70;;;;;;4886336;29;20228;-76
2023/07/16 11:45:36;;;;;;;4.37;3.77;;;25.10;61.90;;;;;;4897033;29;20189;-73
2023/07/16 11:48:03;;;;;;;5.83;4.70;;;25.20;62.60;;;;;;4896715;29;20535;-72
2023/07/16 11:50:29;;;;;;;5.37;4.93;;;24.90;63.50;;;;;;4895685;29;20424;-74
2023/07/16 11:53:03;;;;;;;3.57;3.37;;;24.80;63.00;;;;;;4893170;29;20453;-73
2023/07/16 11:55:29;;;;;;;3.83;3.70;;;24.70;64.40;;;;;;4894720;29;20793;-73
2023/07/16 11:57:56;;;;;;;8.07;4.40;;;24.70;64.90;;;;;;4895205;29;20492;-72
2023/07/16 12:00:23;;;;;;;4.20;3.80;;;24.60;64.60;;;;;;4894879;29;20604;-72
2023/07/16 12:02:52;;;;;;;4.70;4.40;;;24.90;63.90;;;;;;4896376;29;20445;-72
2023/07/16 12:15:27;;;;;;;3.80;3.70;;;25.60;63.70;;;;;;4895319;29;20914;-73
2023/07/16 12:21:14;;;;;;;5.23;4.73;;;25.70;62.50;;;;;;4891553;29;20388;-73
2023/07/16 12:23:40;;;;;;;4.73;4.43;;;25.60;62.20;;;;;;4888904;29;20460;-72
2023/07/16 12:26:05;;;;;;;4.27;3.97;;;25.60;62.70;;;;;;4893818;29;20187;-73
2023/07/16 12:28:31;;;;;;;4.60;4.30;;;25.50;63.40;;;;;;4895004;29;20208;-72
2023/07/16 12:30:57;;;;;;;4.10;3.77;;;25.40;63.60;;;;;;4891203;29;20202;-73
2023/07/16 12:33:22;;;;;;;4.40;3.80;;;25.20;64.10;;;;;;4893830;29;20244;-71
2023/07/16 12:35:48;;;;;;;5.00;4.00;;;25.20;64.00;;;;;;4901263;29;20262;-71
2023/07/16 12:38:13;;;;;;;4.33;4.03;;;25.30;64.90;;;;;;4893881;29;20197;-72
2023/07/16 12:40:40;;;;;;;4.07;3.70;;;25.20;63.20;;;;;;4891776;29;20188;-72
2023/07/16 12:43:06;;;;;;;4.27;3.90;;;25.20;64.20;;;;;;4876328;29;20220;-73
2023/07/16 12:45:35;;;;;;;6.47;6.03;;;25.50;64.60;;;;;;4897079;29;21053;-71
2023/07/16 12:48:00;;;;;;;3.87;3.57;;;25.60;65.30;;;;;;4890122;29;20541;-72
2023/07/16 12:50:27;;;;;;;3.77;3.57;;;25.60;63.30;;;;;;4896836;29;21153;-72
2023/07/16 12:52:53;;;;;;;3.97;3.87;;;25.70;63.90;;;;;;4897959;29;20223;-71
2023/07/16 12:55:19;;;;;;;5.00;4.00;;;25.80;62.00;;;;;;4898083;29;20475;-72
2023/07/16 12:57:44;;;;;;;3.70;3.60;;;25.90;62.70;;;;;;4891471;29;20197;-73
2023/07/16 13:00:10;;;;;;;6.83;6.30;;;26.10;61.30;;;;;;4892589;29;20188;-71
2023/07/16 13:02:38;;;;;;;4.20;4.00;;;26.20;62.90;;;;;;4892604;29;20203;-73
2023/07/16 13:05:04;;;;;;;4.33;3.90;;;26.30;60.50;;;;;;4898970;29;20489;-73
2023/07/16 13:07:31;;;;;;;3.80;3.67;;;26.00;60.40;;;;;;4895115;29;20440;-72
2023/07/16 13:09:57;;;;;;;3.57;3.40;;;26.10;59.90;;;;;;4891336;29;20464;-71
2023/07/16 13:12:22;;;;;;;4.30;4.07;;;26.10;60.10;;;;;;4891848;29;20463;-73
2023/07/16 13:14:48;;;;;;;5.40;4.10;;;26.40;60.30;;;;;;4897163;29;20424;-71
2023/07/16 13:17:16;;;;;;;5.47;3.70;;;27.00;60.30;;;;;;4875812;29;20200;-72
2023/07/16 13:19:42;;;;;;;4.80;4.50;;;27.10;59.50;;;;;;4892728;29;20280;-73
2023/07/16 13:22:07;;;;;;;4.10;3.70;;;27.40;59.50;;;;;;4886408;29;21212;-74
2023/07/16 13:24:33;;;;;;;4.23;3.93;;;28.90;56.90;;;;;;4890025;29;20369;-73
2023/07/16 13:26:59;;;;;;;4.10;4.00;;;29.20;55.90;;;;;;4886263;29;20272;-72
2023/07/16 13:29:24;;;;;;;4.43;4.20;;;29.10;56.60;;;;;;4896463;29;20223;-72
2023/07/16 13:31:51;;;;;;;4.00;3.90;;;29.30;56.10;;;;;;4881933;29;20664;-72
2023/07/16 13:34:17;;;;;;;4.47;4.23;;;28.90;55.30;;;;;;4892868;29;20187;-71
2023/07/16 13:36:43;;;;;;;4.70;4.30;;;27.90;56.00;;;;;;4887546;29;20452;-71
2023/07/16 13:39:09;;;;;;;3.87;3.57;;;27.20;56.80;;;;;;4889307;29;20495;-71
2023/07/16 13:41:36;;;;;;;5.20;3.90;;;26.90;57.30;;;;;;4884856;29;20545;-73
2023/07/16 13:44:01;;;;;;;4.10;4.00;;;26.70;57.90;;;;;;4890488;29;20471;-71
2023/07/16 13:46:27;;;;;;;3.73;3.63;;;26.50;58.40;;;;;;4869388;29;20493;-72
2023/07/16 13:48:53;;;;;;;5.30;4.90;;;26.60;58.20;;;;;;4889516;29;20531;-75
2023/07/16 13:51:19;;;;;;;4.23;4.03;;;26.70;58.80;;;;;;4866821;29;20250;-74
2023/07/16 13:53:45;;;;;;;4.33;4.07;;;26.70;58.50;;;;;;4886924;29;20444;-74
2023/07/16 13:56:10;;;;;;;5.40;4.93;;;26.70;59.00;;;;;;4869741;29;20231;-73
2023/07/16 13:58:40;;;;;;;4.43;4.23;;;26.40;59.00;;;;;;4896099;29;20199;-72
2023/07/16 14:01:06;;;;;;;4.10;3.70;;;25.90;59.70;;;;;;4884616;29;20223;-73
2023/07/16 14:03:31;;;;;;;4.50;4.10;;;25.90;59.60;;;;;;4883227;29;20512;-72
2023/07/16 14:05:57;;;;;;;5.73;5.17;;;25.90;60.20;;;;;;4866932;29;20502;-74
2023/07/16 14:08:23;;;;;;;4.33;4.13;;;26.20;60.80;;;;;;4882741;29;20208;-74
2023/07/16 14:10:48;;;;;;;5.00;4.60;;;26.90;59.60;;;;;;4879649;29;20220;-75
2023/07/16 14:13:15;;;;;;;5.67;4.80;;;27.00;58.60;;;;;;4889355;29;20646;-74
2023/07/16 14:15:42;;;;;;;3.93;3.63;;;27.10;59.80;;;;;;4886493;29;20638;-74
2023/07/16 14:18:07;;;;;;;5.10;4.80;;;26.80;59.00;;;;;;4892941;29;20445;-74
2023/07/16 14:30:40;;;;;;;4.40;4.00;;;27.60;58.60;;;;;;4889440;29;20798;-73
2023/07/16 14:36:28;;;;;;;5.10;4.70;;;27.30;59.20;;;;;;4893882;29;20236;-72
2023/07/16 14:59:29;;;;;;;3.13;3.03;;;27.40;58.90;;;;;;4886306;29;20680;-73
2023/07/16 15:05:30;;;;;;;4.57;4.20;;;27.10;60.30;;;;;;4885893;29;20488;-74
2023/07/16 15:07:56;;;;;;;4.67;4.37;;;27.00;60.50;;;;;;4891167;29;20524;-73
2023/07/16 15:10:21;;;;;;;3.80;3.60;;;27.10;59.90;;;;;;4886841;29;20704;-71
2023/07/16 15:12:47;;;;;;;3.30;3.20;;;26.80;60.20;;;;;;4890448;29;20552;-73
2023/07/16 15:18:53;;;;;;;3.93;3.73;;;26.40;60.20;;;;;;4886818;29;20304;-73
2023/07/16 15:28:03;;;;;;;4.30;4.10;;;26.20;63.90;;;;;;4895073;29;20643;-72
2023/07/16 15:30:28;;;;;;;4.10;3.80;;;25.90;58.10;;;;;;4896224;29;20560;-72
2023/07/16 15:32:54;;;;;;;4.63;4.27;;;25.70;58.80;;;;;;4887126;29;20250;-71
2023/07/16 15:35:20;;;;;;;4.07;3.77;;;25.40;59.60;;;;;;4881425;29;20204;-73
2023/07/16 15:37:45;;;;;;;6.13;5.63;;;25.20;59.80;;;;;;4894229;29;20903;-72
2023/07/16 15:40:15;;;;;;;5.77;5.10;;;25.40;61.00;;;;;;4890089;29;20189;-74
2023/07/16 15:42:42;;;;;;;4.20;4.00;;;25.70;60.10;;;;;;4877129;29;20344;-73
2023/07/16 15:45:13;;;;;;;3.17;3.07;;;25.70;59.50;;;;;;4887332;29;20457;-72
2023/07/16 15:47:39;;;;;;;3.57;3.30;;;25.80;59.60;;;;;;4891604;29;20481;-73
2023/07/16 15:50:05;;;;;;;5.00;4.17;;;25.70;59.50;;;;;;4886271;29;20846;-73
2023/07/16 15:52:31;;;;;;;3.80;3.70;;;25.90;59.70;;;;;;4876157;29;20440;-72
2023/07/16 15:54:56;;;;;;;3.73;3.63;;;26.00;60.00;;;;;;4891525;29;20449;-73
2023/07/16 15:57:22;;;;;;;5.37;5.00;;;26.00;59.20;;;;;;4891885;29;20194;-72
2023/07/16 15:59:47;;;;;;;4.30;4.00;;;25.90;59.20;;;;;;4888402;29;20219;-73
2023/07/16 16:02:13;;;;;;;4.23;4.03;;;25.80;59.70;;;;;;4888293;29;20613;-73
2023/07/16 16:04:41;;;;;;;4.43;3.43;;;25.60;58.70;;;;;;4896643;29;20197;-72
2023/07/16 16:07:07;;;;;;;5.77;5.37;;;25.50;59.40;;;;;;4869911;29;20192;-74
2023/07/16 16:09:32;;;;;;;4.40;4.20;;;25.70;60.10;;;;;;4871454;29;20484;-73
2023/07/16 16:11:59;;;;;;;4.77;3.53;;;25.60;59.30;;;;;;4876884;29;20925;-76
2023/07/16 16:14:25;;;;;;;3.97;3.67;;;25.40;58.40;;;;;;4867264;29;20228;-74
2023/07/16 16:16:51;;;;;;;4.87;4.60;;;25.40;58.90;;;;;;4891030;29;20417;-74
2023/07/16 16:19:19;;;;;;;3.77;3.67;;;25.20;59.80;;;;;;4892031;29;20829;-73
2023/07/16 16:21:45;;;;;;;4.03;3.83;;;25.30;59.80;;;;;;4879650;29;20184;-74
2023/07/16 16:24:10;;;;;;;4.80;4.40;;;25.30;59.30;;;;;;4883658;29;20846;-74
2023/07/16 16:26:36;;;;;;;8.47;7.83;;;25.30;59.90;;;;;;4886762;29;20668;-73
2023/07/16 16:29:02;;;;;;;11.30;10.20;;;25.30;59.40;;;;;;4892686;29;20305;-73
2023/07/16 16:31:27;;;;;;;6.97;6.33;;;25.10;60.30;;;;;;4888765;29;20235;-75
2023/07/16 16:33:53;;;;;;;5.13;4.80;;;25.10;60.00;;;;;;4891907;29;20395;-73
2023/07/16 16:36:19;;;;;;;5.20;4.57;;;25.10;61.30;;;;;;4873028;29;20212;-74
2023/07/16 16:38:45;;;;;;;3.73;3.53;;;25.20;61.70;;;;;;4894793;29;20203;-74
2023/07/16 16:41:12;;;;;;;4.00;3.70;;;25.20;61.10;;;;;;4887248;29;20543;-71
2023/07/16 16:43:38;;;;;;;5.63;5.17;;;25.30;61.00;;;;;;4888993;29;20227;-73
2023/07/16 16:46:04;;;;;;;4.17;3.87;;;25.40;61.10;;;;;;4888226;29;21113;-72
2023/07/16 16:48:35;;;;;;;3.20;3.10;;;25.50;61.00;;;;;;4890243;29;20779;-73
2023/07/16 16:51:02;;;;;;;3.80;3.57;;;25.40;60.40;;;;;;4885788;29;20493;-73
2023/07/16 16:53:28;;;;;;;3.67;3.50;;;25.40;59.50;;;;;;4890749;29;20575;-73
2023/07/16 16:55:58;;;;;;;5.10;4.87;;;25.40;59.80;;;;;;4882672;29;20813;-74
2023/07/16 16:58:25;;;;;;;5.97;5.47;;;25.30;61.20;;;;;;4873464;29;21119;-75
2023/07/16 17:00:55;;;;;;;4.30;4.00;;;25.10;61.10;;;;;;4881342;29;20460;-73
2023/07/16 17:03:24;;;;;;;4.83;4.43;;;25.00;61.30;;;;;;4890551;29;20438;-73
2023/07/16 17:05:55;;;;;;;4.90;4.70;;;25.00;61.40;;;;;;4889910;29;20574;-72
2023/07/16 17:08:22;;;;;;;4.20;4.00;;;24.90;62.40;;;;;;4894731;29;20487;-74
2023/07/16 17:10:48;;;;;;;4.50;4.30;;;24.90;62.40;;;;;;4883308;29;20483;-73